Time,TemperatureF,DewpointF,PressureIn,WindDirection,WindDirectionDegrees,WindSpeedMPH,WindSpeedGustMPH,Humidity,HourlyPrecipIn,Conditions,Clouds,dailyrainin,SoftwareType,DateUTC
2013-04-08 00:09:00,53.2,46.0,29.92,South,189,5.0,-999.0,76,-99.99,,,0.00,weatherlink.com 1.10,2013-04-08 04:09:00,
2013-04-08 00:24:00,53.7,46.0,29.91,SSE,167,11.0,-999.0,75,-99.99,,,0.00,weatherlink.com 1.10,2013-04-08 04:24:00,
2013-04-08 00:39:00,54.4,46.0,29.91,South,190,9.0,-999.0,74,-99.99,,,0.00,weatherlink.com 1.10,2013-04-08 04:39:00,
2013-04-08 00:54:00,54.5,46.0,29.90,SSW,192,10.0,-999.0,74,-99.99,,,0.00,weatherlink.com 1.10,2013-04-08 04:54:00,
2013-04-08 01:09:00,54.3,46.0,29.90,SSW,196,8.0,-999.0,74,-99.99,,,0.00,weatherlink.com 1.10,2013-04-08 05:09:00,
2013-04-08 01:24:00,54.2,46.0,29.89,South,175,11.0,-999.0,75,-99.99,,,0.00,weatherlink.com 1.10,2013-04-08 05:24:00,
2013-04-08 01:39:00,54.3,47.0,29.89,SSW,198,4.0,-999.0,75,-99.99,,,0.00,weatherlink.com 1.10,2013-04-08 05:39:00,
2013-04-08 01:54:00,54.3,47.0,29.89,South,191,4.0,-999.0,75,-99.99,,,0.00,weatherlink.com 1.10,2013-04-08 05:54:00,
2013-04-08 02:24:00,54.2,46.0,29.88,SSW,192,7.0,-999.0,75,-99.99,,,0.00,weatherlink.com 1.10,2013-04-08 06:24:00,
2013-04-08 02:54:00,54.4,46.0,29.88,SSW,206,7.0,-999.0,74,-99.99,,,0.00,weatherlink.com 1.10,2013-04-08 06:54:00,
2013-04-08 03:09:00,54.7,46.0,29.88,SSW,198,4.0,-999.0,73,-99.99,,,0.00,weatherlink.com 1.10,2013-04-08 07:09:00,
2013-04-08 03:24:00,54.8,46.0,29.88,SSW,212,4.0,-999.0,73,-99.99,,,0.00,weatherlink.com 1.10,2013-04-08 07:24:00,
2013-04-08 03:39:00,54.8,46.0,29.88,SSW,208,4.0,-999.0,73,-99.99,,,0.00,weatherlink.com 1.10,2013-04-08 07:39:00,
2013-04-08 03:54:00,54.5,46.0,29.88,WSW,242,5.0,-999.0,74,-99.99,,,0.00,weatherlink.com 1.10,2013-04-08 07:54:00,
2013-04-08 04:09:00,54.1,46.0,29.89,WSW,238,4.0,-999.0,74,-99.99,,,0.00,weatherlink.com 1.10,2013-04-08 08:09:00,
2013-04-08 04:24:00,53.6,46.0,29.89,SSW,203,3.0,-999.0,75,-99.99,,,0.00,weatherlink.com 1.10,2013-04-08 08:24:00,
2013-04-08 04:39:00,53.1,46.0,29.89,SW,228,3.0,-999.0,77,-99.99,,,0.00,weatherlink.com 1.10,2013-04-08 08:39:00,
2013-04-08 05:09:00,52.6,46.0,29.89,SW,233,4.0,-999.0,78,-99.99,,,0.00,weatherlink.com 1.10,2013-04-08 09:09:00,
2013-04-08 05:39:00,52.0,46.0,29.90,WSW,250,2.0,-999.0,79,-99.99,,,0.00,weatherlink.com 1.10,2013-04-08 09:39:00,
2013-04-08 05:54:00,51.7,46.0,29.91,WSW,244,0.0,-999.0,80,-99.99,,,0.00,weatherlink.com 1.10,2013-04-08 09:54:00,
2013-04-08 06:09:00,51.2,46.0,29.92,WSW,244,2.0,-999.0,81,-99.99,,,0.00,weatherlink.com 1.10,2013-04-08 10:09:00,
2013-04-08 06:24:00,50.7,45.0,29.92,WSW,244,3.0,-999.0,82,-99.99,,,0.00,weatherlink.com 1.10,2013-04-08 10:24:00,
2013-04-08 06:39:00,50.5,45.0,29.92,WSW,244,2.0,-999.0,82,-99.99,,,0.00,weatherlink.com 1.10,2013-04-08 10:39:00,
2013-04-08 06:54:00,50.6,46.0,29.93,WSW,244,1.0,-999.0,83,-99.99,,,0.00,weatherlink.com 1.10,2013-04-08 10:54:00,
2013-04-08 07:09:00,50.9,46.0,29.94,WSW,244,0.0,-999.0,82,-99.99,,,0.00,weatherlink.com 1.10,2013-04-08 11:09:00,
2013-04-08 07:24:00,51.2,46.0,29.94,WSW,244,0.0,-999.0,83,-99.99,,,0.00,weatherlink.com 1.10,2013-04-08 11:24:00,
2013-04-08 07:39:00,52.1,46.0,29.95,West,264,0.0,-999.0,81,-99.99,,,0.00,weatherlink.com 1.10,2013-04-08 11:39:00,
2013-04-08 07:54:00,53.6,47.0,29.95,WSW,258,1.0,-999.0,78,-99.99,,,0.00,weatherlink.com 1.10,2013-04-08 11:54:00,
2013-04-08 08:39:00,56.2,48.0,29.95,WSW,258,2.0,-999.0,73,-99.99,,,0.00,weatherlink.com 1.10,2013-04-08 12:39:00,
2013-04-08 08:54:00,57.0,48.0,29.95,NNW,328,2.0,-999.0,72,-99.99,,,0.00,weatherlink.com 1.10,2013-04-08 12:54:00,
2013-04-08 09:09:00,57.4,48.0,29.95,NW,325,4.0,-999.0,71,-99.99,,,0.00,weatherlink.com 1.10,2013-04-08 13:09:00,
2013-04-08 09:24:00,57.8,48.0,29.96,NW,325,2.0,-999.0,70,-99.99,,,0.00,weatherlink.com 1.10,2013-04-08 13:24:00,
2013-04-08 09:39:00,58.4,48.0,29.96,NNW,346,0.0,-999.0,68,-99.99,,,0.00,weatherlink.com 1.10,2013-04-08 13:39:00,
2013-04-08 09:54:00,59.9,47.0,29.97,NW,324,4.0,-999.0,63,-99.99,,,0.00,weatherlink.com 1.10,2013-04-08 13:54:00,
2013-04-08 10:09:00,61.4,48.0,29.97,NW,313,1.0,-999.0,61,-99.99,,,0.00,weatherlink.com 1.10,2013-04-08 14:09:00,
2013-04-08 10:24:00,62.0,48.0,29.98,WNW,295,1.0,-999.0,60,-99.99,,,0.00,weatherlink.com 1.10,2013-04-08 14:24:00,
2013-04-08 10:39:00,63.0,48.0,29.98,NE,41,1.0,-999.0,58,-99.99,,,0.00,weatherlink.com 1.10,2013-04-08 14:39:00,
2013-04-08 10:54:00,64.3,47.0,29.98,NNW,331,0.0,-999.0,53,-99.99,,,0.00,weatherlink.com 1.10,2013-04-08 14:54:00,
2013-04-08 11:09:00,65.8,47.0,29.98,NNW,333,2.0,-999.0,51,-99.99,,,0.00,weatherlink.com 1.10,2013-04-08 15:09:00,
2013-04-08 11:39:00,66.9,46.0,29.98,North,350,4.0,-999.0,48,-99.99,,,0.00,weatherlink.com 1.10,2013-04-08 15:39:00,
2013-04-08 12:09:00,69.5,49.0,29.98,SE,126,0.0,-999.0,48,-99.99,,,0.00,weatherlink.com 1.10,2013-04-08 16:09:00,
2013-04-08 12:24:00,67.7,48.0,29.98,East,92,2.0,-999.0,49,-99.99,,,0.00,weatherlink.com 1.10,2013-04-08 16:24:00,
2013-04-08 12:39:00,66.2,48.0,29.97,ENE,65,4.0,-999.0,52,-99.99,,,0.00,weatherlink.com 1.10,2013-04-08 16:39:00,
2013-04-08 12:54:00,65.2,47.0,29.96,ESE,105,4.0,-999.0,53,-99.99,,,0.00,weatherlink.com 1.10,2013-04-08 16:54:00,
2013-04-08 13:09:00,65.6,48.0,29.97,ENE,71,6.0,-999.0,53,-99.99,,,0.00,weatherlink.com 1.10,2013-04-08 17:09:00,
2013-04-08 13:24:00,66.2,48.0,29.96,ENE,57,0.0,-999.0,52,-99.99,,,0.00,weatherlink.com 1.10,2013-04-08 17:24:00,
2013-04-08 13:39:00,66.8,47.0,29.95,ENE,65,6.0,-999.0,50,-99.99,,,0.00,weatherlink.com 1.10,2013-04-08 17:39:00,
2013-04-08 13:54:00,66.1,47.0,29.95,East,95,5.0,-999.0,50,-99.99,,,0.00,weatherlink.com 1.10,2013-04-08 17:54:00,
2013-04-08 14:09:00,66.5,47.0,29.95,East,85,1.0,-999.0,50,-99.99,,,0.00,weatherlink.com 1.10,2013-04-08 18:09:00,
2013-04-08 14:24:00,66.3,47.0,29.94,ESE,109,1.0,-999.0,51,-99.99,,,0.00,weatherlink.com 1.10,2013-04-08 18:24:00,
2013-04-08 14:39:00,66.1,47.0,29.94,ESE,106,4.0,-999.0,50,-99.99,,,0.00,weatherlink.com 1.10,2013-04-08 18:39:00,
2013-04-08 14:54:00,66.3,47.0,29.93,SE,128,1.0,-999.0,50,-99.99,,,0.00,weatherlink.com 1.10,2013-04-08 18:54:00,
2013-04-08 15:09:00,65.8,46.0,29.93,SE,136,4.0,-999.0,49,-99.99,,,0.00,weatherlink.com 1.10,2013-04-08 19:09:00,
2013-04-08 15:24:00,65.9,47.0,29.93,SSE,157,1.0,-999.0,50,-99.99,,,0.00,weatherlink.com 1.10,2013-04-08 19:24:00,
2013-04-08 15:54:00,65.6,47.0,29.93,ESE,121,5.0,-999.0,51,-99.99,,,0.00,weatherlink.com 1.10,2013-04-08 19:54:00,
2013-04-08 16:09:00,65.7,47.0,29.92,East,98,2.0,-999.0,51,-99.99,,,0.00,weatherlink.com 1.10,2013-04-08 20:09:00,
2013-04-08 16:24:00,65.3,46.0,29.92,ESE,109,4.0,-999.0,50,-99.99,,,0.00,weatherlink.com 1.10,2013-04-08 20:24:00,
2013-04-08 16:39:00,65.7,47.0,29.92,SSE,167,2.0,-999.0,52,-99.99,,,0.00,weatherlink.com 1.10,2013-04-08 20:39:00,
2013-04-08 17:09:00,66.5,46.0,29.92,South,169,6.0,-999.0,48,-99.99,,,0.00,weatherlink.com 1.10,2013-04-08 21:09:00,
2013-04-08 17:39:00,66.8,47.0,29.91,ESE,123,2.0,-999.0,50,-99.99,,,0.00,weatherlink.com 1.10,2013-04-08 21:39:00,
2013-04-08 17:54:00,67.4,49.0,29.91,SE,134,2.0,-999.0,52,-99.99,,,0.00,weatherlink.com 1.10,2013-04-08 21:54:00,
2013-04-08 18:09:00,66.8,49.0,29.91,SE,130,2.0,-999.0,53,-99.99,,,0.00,weatherlink.com 1.10,2013-04-08 22:09:00,
2013-04-08 18:24:00,66.5,49.0,29.91,ESE,121,2.0,-999.0,54,-99.99,,,0.00,weatherlink.com 1.10,2013-04-08 22:24:00,
2013-04-08 18:39:00,65.4,49.0,29.91,SSE,148,6.0,-999.0,55,-99.99,,,0.00,weatherlink.com 1.10,2013-04-08 22:39:00,
2013-04-08 18:54:00,63.9,48.0,29.90,East,98,0.0,-999.0,57,-99.99,,,0.00,weatherlink.com 1.10,2013-04-08 22:54:00,
2013-04-08 19:09:00,62.8,48.0,29.91,ESE,121,0.0,-999.0,59,-99.99,,,0.00,weatherlink.com 1.10,2013-04-08 23:09:00,
2013-04-08 19:24:00,61.8,48.0,29.92,SE,143,0.0,-999.0,60,-99.99,,,0.00,weatherlink.com 1.10,2013-04-08 23:24:00,
2013-04-08 19:54:00,59.1,48.0,29.91,SSE,154,0.0,-999.0,67,-99.99,,,0.00,weatherlink.com 1.10,2013-04-08 23:54:00,
2013-04-08 20:24:00,56.3,48.0,29.92,SSE,154,0.0,-999.0,74,-99.99,,,0.00,weatherlink.com 1.10,2013-04-09 00:24:00,
2013-04-08 20:39:00,55.7,49.0,29.92,SSE,154,0.0,-999.0,77,-99.99,,,0.00,weatherlink.com 1.10,2013-04-09 00:39:00,
2013-04-08 20:54:00,55.6,49.0,29.93,SSE,154,0.0,-999.0,77,-99.99,,,0.00,weatherlink.com 1.10,2013-04-09 00:54:00,
2013-04-08 21:24:00,55.6,49.0,29.93,SSE,154,0.0,-999.0,78,-99.99,,,0.00,weatherlink.com 1.10,2013-04-09 01:24:00,
2013-04-08 21:54:00,55.7,49.0,29.92,SSE,154,0.0,-999.0,79,-99.99,,,0.00,weatherlink.com 1.10,2013-04-09 01:54:00,
2013-04-08 22:39:00,56.4,50.0,29.92,SSE,154,0.0,-999.0,80,-99.99,,,0.00,weatherlink.com 1.10,2013-04-09 02:39:00,
2013-04-08 23:09:00,56.7,51.0,29.91,SSE,154,0.0,-999.0,82,-99.99,,,0.00,weatherlink.com 1.10,2013-04-09 03:09:00,
2013-04-08 23:39:00,56.7,52.0,29.90,SSE,154,0.0,-999.0,83,-99.99,,,0.00,weatherlink.com 1.10,2013-04-09 03:39:00,
2013-04-08 23:54:00,56.4,52.0,29.89,SSE,154,0.0,-999.0,84,-99.99,,,0.00,weatherlink.com 1.10,2013-04-09 03:54:00,